sensor_id;sensor_type;location;lat;lon;timestamp;temperature;humidity
75705;DHT22;70013;44.726;37.760;2023-08-01T00:00:48;25.39;62.10
75705;DHT22;70013;44.726;37.760;2023-08-01T00:01:49;25.39;61.80
75705;DHT22;70013;44.726;37.760;2023-08-01T00:02:50;25.39;62.15
75705;DHT22;70013;44.726;37.760;2023-08-01T00:03:51;25.38;61.48
75705;DHT22;70013;44.726;37.760;2023-08-01T00:04:53;25.38;61.34
75705;DHT22;70013;44.726;37.760;2023-08-01T00:05:54;25.37;61.32
75705;DHT22;70013;44.726;37.760;2023-08-01T00:06:56;25.36;62.50
75705;DHT22;70013;44.726;37.760;2023-08-01T00:07:57;25.35;62.30
75705;DHT22;70013;44.726;37.760;2023-08-01T00:08:58;25.32;61.79
75705;DHT22;70013;44.726;37.760;2023-08-01T00:09:59;25.31;61.70
75705;DHT22;70013;44.726;37.760;2023-08-01T00:11:01;25.31;61.91
75705;DHT22;70013;44.726;37.760;2023-08-01T00:12:02;25.29;62.42
75705;DHT22;70013;44.726;37.760;2023-08-01T00:13:03;25.27;62.64
75705;DHT22;70013;44.726;37.760;2023-08-01T00:14:04;25.23;63.59
75705;DHT22;70013;44.726;37.760;2023-08-01T00:15:06;25.21;62.81
75705;DHT22;70013;44.726;37.760;2023-08-01T00:16:08;25.19;63.63
75705;DHT22;70013;44.726;37.760;2023-08-01T00:17:09;25.14;64.01
75705;DHT22;70013;44.726;37.760;2023-08-01T00:18:11;25.14;63.40
75705;DHT22;70013;44.726;37.760;2023-08-01T00:19:12;25.12;63.56
75705;DHT22;70013;44.726;37.760;2023-08-01T00:20:13;25.14;63.42
75705;DHT22;70013;44.726;37.760;2023-08-01T00:21:15;25.14;63.46
75705;DHT22;70013;44.726;37.760;2023-08-01T00:22:16;25.16;63.62
75705;DHT22;70013;44.726;37.760;2023-08-01T00:23:18;25.15;63.80
75705;DHT22;70013;44.726;37.760;2023-08-01T00:24:19;25.14;63.59
75705;DHT22;70013;44.726;37.760;2023-08-01T00:25:20;25.16;63.47
75705;DHT22;70013;44.726;37.760;2023-08-01T00:26:22;25.15;63.19
75705;DHT22;70013;44.726;37.760;2023-08-01T00:27:23;25.17;63.81
75705;DHT22;70013;44.726;37.760;2023-08-01T00:28:25;25.17;63.01
75705;DHT22;70013;44.726;37.760;2023-08-01T00:29:27;25.17;63.40
75705;DHT22;70013;44.726;37.760;2023-08-01T00:30:29;25.17;63.71
75705;DHT22;70013;44.726;37.760;2023-08-01T00:31:30;25.16;63.48
75705;DHT22;70013;44.726;37.760;2023-08-01T00:32:31;25.16;63.82
75705;DHT22;70013;44.726;37.760;2023-08-01T00:33:33;25.18;63.34
75705;DHT22;70013;44.726;37.760;2023-08-01T00:34:34;25.17;63.97
75705;DHT22;70013;44.726;37.760;2023-08-01T00:35:36;25.15;64.24
75705;DHT22;70013;44.726;37.760;2023-08-01T00:36:37;25.16;63.81
75705;DHT22;70013;44.726;37.760;2023-08-01T00:37:38;25.17;64.17
75705;DHT22;70013;44.726;37.760;2023-08-01T00:38:40;25.18;64.30
75705;DHT22;70013;44.726;37.760;2023-08-01T00:39:44;25.18;64.11
75705;DHT22;70013;44.726;37.760;2023-08-01T00:40:45;25.19;64.18
75705;DHT22;70013;44.726;37.760;2023-08-01T00:41:47;25.16;64.77
75705;DHT22;70013;44.726;37.760;2023-08-01T00:42:49;25.15;64.95
75705;DHT22;70013;44.726;37.760;2023-08-01T00:43:56;25.20;64.78
75705;DHT22;70013;44.726;37.760;2023-08-01T00:44:57;25.23;63.66
75705;DHT22;70013;44.726;37.760;2023-08-01T00:46:00;25.29;64.38
75705;DHT22;70013;44.726;37.760;2023-08-01T00:47:03;25.32;64.84
75705;DHT22;70013;44.726;37.760;2023-08-01T00:48:04;25.33;64.62
75705;DHT22;70013;44.726;37.760;2023-08-01T00:49:06;25.36;64.67
75705;DHT22;70013;44.726;37.760;2023-08-01T00:50:09;25.37;64.72
75705;DHT22;70013;44.726;37.760;2023-08-01T00:51:11;25.31;64.66
75705;DHT22;70013;44.726;37.760;2023-08-01T00:52:13;25.28;64.77
75705;DHT22;70013;44.726;37.760;2023-08-01T00:53:14;25.27;64.79
75705;DHT22;70013;44.726;37.760;2023-08-01T00:54:16;25.24;64.95
75705;DHT22;70013;44.726;37.760;2023-08-01T00:55:18;25.22;65.02
75705;DHT22;70013;44.726;37.760;2023-08-01T00:56:20;25.25;64.55
75705;DHT22;70013;44.726;37.760;2023-08-01T00:57:22;25.32;64.47
75705;DHT22;70013;44.726;37.760;2023-08-01T00:58:24;25.33;64.42
75705;DHT22;70013;44.726;37.760;2023-08-01T00:59:25;25.36;63.50
75705;DHT22;70013;44.726;37.760;2023-08-01T01:00:26;25.40;63.48
75705;DHT22;70013;44.726;37.760;2023-08-01T01:01:28;25.44;63.22
75705;DHT22;70013;44.726;37.760;2023-08-01T01:02:30;25.47;61.96
75705;DHT22;70013;44.726;37.760;2023-08-01T01:03:31;25.51;62.86
75705;DHT22;70013;44.726;37.760;2023-08-01T01:04:33;25.54;62.79
75705;DHT22;70013;44.726;37.760;2023-08-01T01:05:37;25.58;62.71
75705;DHT22;70013;44.726;37.760;2023-08-01T01:06:51;25.61;62.20
75705;DHT22;70013;44.726;37.760;2023-08-01T01:07:54;25.66;62.13
75705;DHT22;70013;44.726;37.760;2023-08-01T01:08:56;25.68;62.21
75705;DHT22;70013;44.726;37.760;2023-08-01T01:09:58;25.71;62.18
75705;DHT22;70013;44.726;37.760;2023-08-01T01:10:59;25.71;61.54
75705;DHT22;70013;44.726;37.760;2023-08-01T01:12:00;25.74;61.89
75705;DHT22;70013;44.726;37.760;2023-08-01T01:13:02;25.76;61.77
75705;DHT22;70013;44.726;37.760;2023-08-01T01:14:04;25.77;61.15
75705;DHT22;70013;44.726;37.760;2023-08-01T01:15:06;25.75;61.64
75705;DHT22;70013;44.726;37.760;2023-08-01T01:16:07;25.72;61.63
75705;DHT22;70013;44.726;37.760;2023-08-01T01:17:09;25.66;61.36
75705;DHT22;70013;44.726;37.760;2023-08-01T01:18:10;25.63;61.92
75705;DHT22;70013;44.726;37.760;2023-08-01T01:19:12;25.62;61.61
75705;DHT22;70013;44.726;37.760;2023-08-01T01:20:13;25.66;61.83
75705;DHT22;70013;44.726;37.760;2023-08-01T01:21:26;25.71;61.97
75705;DHT22;70013;44.726;37.760;2023-08-01T01:22:28;25.71;62.12
75705;DHT22;70013;44.726;37.760;2023-08-01T01:23:30;25.73;61.98
75705;DHT22;70013;44.726;37.760;2023-08-01T01:24:33;25.73;62.25
75705;DHT22;70013;44.726;37.760;2023-08-01T01:25:36;25.72;62.10
75705;DHT22;70013;44.726;37.760;2023-08-01T01:26:41;25.74;61.57
75705;DHT22;70013;44.726;37.760;2023-08-01T01:27:43;25.71;61.93
75705;DHT22;70013;44.726;37.760;2023-08-01T01:28:48;25.65;62.32
75705;DHT22;70013;44.726;37.760;2023-08-01T01:29:50;25.66;62.41
75705;DHT22;70013;44.726;37.760;2023-08-01T01:30:52;25.64;62.37
75705;DHT22;70013;44.726;37.760;2023-08-01T01:31:55;25.61;62.47
75705;DHT22;70013;44.726;37.760;2023-08-01T01:32:57;25.64;62.18
75705;DHT22;70013;44.726;37.760;2023-08-01T01:33:59;25.66;62.09
75705;DHT22;70013;44.726;37.760;2023-08-01T01:35:02;25.68;62.15
75705;DHT22;70013;44.726;37.760;2023-08-01T01:36:04;25.64;62.13
75705;DHT22;70013;44.726;37.760;2023-08-01T01:37:06;25.63;62.38
75705;DHT22;70013;44.726;37.760;2023-08-01T01:38:11;25.61;62.53
75705;DHT22;70013;44.726;37.760;2023-08-01T01:39:12;25.64;62.02
75705;DHT22;70013;44.726;37.760;2023-08-01T01:40:14;25.65;61.79
75705;DHT22;70013;44.726;37.760;2023-08-01T01:41:15;25.67;61.74
75705;DHT22;70013;44.726;37.760;2023-08-01T01:42:16;25.69;60.90
75705;DHT22;70013;44.726;37.760;2023-08-01T01:43:18;25.72;62.18
75705;DHT22;70013;44.726;37.760;2023-08-01T01:44:19;25.71;62.24
75705;DHT22;70013;44.726;37.760;2023-08-01T01:45:20;25.73;61.18
75705;DHT22;70013;44.726;37.760;2023-08-01T01:46:22;25.75;62.02
75705;DHT22;70013;44.726;37.760;2023-08-01T01:47:23;25.76;61.69
75705;DHT22;70013;44.726;37.760;2023-08-01T01:48:24;25.77;61.96
75705;DHT22;70013;44.726;37.760;2023-08-01T01:49:26;25.77;61.57
75705;DHT22;70013;44.726;37.760;2023-08-01T01:50:27;25.78;61.15
75705;DHT22;70013;44.726;37.760;2023-08-01T01:51:29;25.78;61.33
75705;DHT22;70013;44.726;37.760;2023-08-01T01:52:31;25.79;61.82
75705;DHT22;70013;44.726;37.760;2023-08-01T01:53:34;25.81;61.54
75705;DHT22;70013;44.726;37.760;2023-08-01T01:54:35;25.78;61.92
75705;DHT22;70013;44.726;37.760;2023-08-01T01:55:36;25.77;61.95
75705;DHT22;70013;44.726;37.760;2023-08-01T01:56:38;25.77;61.73
75705;DHT22;70013;44.726;37.760;2023-08-01T01:57:39;25.78;61.73
75705;DHT22;70013;44.726;37.760;2023-08-01T01:58:41;25.75;62.02
75705;DHT22;70013;44.726;37.760;2023-08-01T01:59:43;25.71;61.99
75705;DHT22;70013;44.726;37.760;2023-08-01T02:00:44;25.74;61.77
75705;DHT22;70013;44.726;37.760;2023-08-01T02:01:45;25.75;61.60
75705;DHT22;70013;44.726;37.760;2023-08-01T02:02:46;25.78;61.73
75705;DHT22;70013;44.726;37.760;2023-08-01T02:03:48;25.78;62.09
75705;DHT22;70013;44.726;37.760;2023-08-01T02:04:49;25.81;62.15
75705;DHT22;70013;44.726;37.760;2023-08-01T02:05:51;25.82;61.32
75705;DHT22;70013;44.726;37.760;2023-08-01T02:06:53;25.82;62.08
75705;DHT22;70013;44.726;37.760;2023-08-01T02:07:56;25.83;62.24
75705;DHT22;70013;44.726;37.760;2023-08-01T02:08:57;25.84;62.23
75705;DHT22;70013;44.726;37.760;2023-08-01T02:10:03;25.86;61.29
75705;DHT22;70013;44.726;37.760;2023-08-01T02:11:08;25.87;62.39
75705;DHT22;70013;44.726;37.760;2023-08-01T02:12:10;25.82;64.59
75705;DHT22;70013;44.726;37.760;2023-08-01T02:13:15;25.80;65.28
75705;DHT22;70013;44.726;37.760;2023-08-01T02:14:16;25.84;64.52
75705;DHT22;70013;44.726;37.760;2023-08-01T02:15:17;25.80;65.23
75705;DHT22;70013;44.726;37.760;2023-08-01T02:16:18;25.65;67.85
75705;DHT22;70013;44.726;37.760;2023-08-01T02:17:20;25.68;66.74
75705;DHT22;70013;44.726;37.760;2023-08-01T02:18:21;25.73;67.23
75705;DHT22;70013;44.726;37.760;2023-08-01T02:19:23;25.72;67.72
75705;DHT22;70013;44.726;37.760;2023-08-01T02:20:24;25.77;67.23
75705;DHT22;70013;44.726;37.760;2023-08-01T02:21:27;25.78;68.53
75705;DHT22;70013;44.726;37.760;2023-08-01T02:22:30;25.74;69.11
75705;DHT22;70013;44.726;37.760;2023-08-01T02:23:31;25.71;69.53
75705;DHT22;70013;44.726;37.760;2023-08-01T02:24:37;25.69;70.35
75705;DHT22;70013;44.726;37.760;2023-08-01T02:25:40;25.66;70.59
75705;DHT22;70013;44.726;37.760;2023-08-01T02:26:42;25.62;71.23
75705;DHT22;70013;44.726;37.760;2023-08-01T02:27:43;25.62;70.45
75705;DHT22;70013;44.726;37.760;2023-08-01T02:28:44;25.68;71.16
75705;DHT22;70013;44.726;37.760;2023-08-01T02:29:46;25.61;72.57
75705;DHT22;70013;44.726;37.760;2023-08-01T02:30:48;25.63;71.74
75705;DHT22;70013;44.726;37.760;2023-08-01T02:31:51;25.68;71.88
75705;DHT22;70013;44.726;37.760;2023-08-01T02:32:53;25.67;73.57
75705;DHT22;70013;44.726;37.760;2023-08-01T02:33:54;25.66;73.81
75705;DHT22;70013;44.726;37.760;2023-08-01T02:34:55;25.66;73.82
75705;DHT22;70013;44.726;37.760;2023-08-01T02:35:56;25.72;72.39
75705;DHT22;70013;44.726;37.760;2023-08-01T02:36:58;25.73;74.80
75705;DHT22;70013;44.726;37.760;2023-08-01T02:37:59;25.75;75.08
75705;DHT22;70013;44.726;37.760;2023-08-01T02:39:01;25.75;74.83
75705;DHT22;70013;44.726;37.760;2023-08-01T02:40:04;25.71;75.96
75705;DHT22;70013;44.726;37.760;2023-08-01T02:41:08;25.71;75.93
75705;DHT22;70013;44.726;37.760;2023-08-01T02:42:09;25.67;76.48
75705;DHT22;70013;44.726;37.760;2023-08-01T02:43:11;25.71;75.79
75705;DHT22;70013;44.726;37.760;2023-08-01T02:44:12;25.73;75.86
75705;DHT22;70013;44.726;37.760;2023-08-01T02:45:14;25.75;76.24
75705;DHT22;70013;44.726;37.760;2023-08-01T02:46:15;25.78;76.10
75705;DHT22;70013;44.726;37.760;2023-08-01T02:47:16;25.76;76.66
75705;DHT22;70013;44.726;37.760;2023-08-01T02:48:18;25.75;76.59
75705;DHT22;70013;44.726;37.760;2023-08-01T02:49:19;25.79;75.94
75705;DHT22;70013;44.726;37.760;2023-08-01T02:50:21;25.81;76.47
75705;DHT22;70013;44.726;37.760;2023-08-01T02:51:22;25.82;76.37
75705;DHT22;70013;44.726;37.760;2023-08-01T02:52:24;25.80;76.73
75705;DHT22;70013;44.726;37.760;2023-08-01T02:53:25;25.76;76.73
75705;DHT22;70013;44.726;37.760;2023-08-01T02:54:26;25.82;76.24
75705;DHT22;70013;44.726;37.760;2023-08-01T02:55:27;25.89;75.70
75705;DHT22;70013;44.726;37.760;2023-08-01T02:56:29;25.93;75.49
75705;DHT22;70013;44.726;37.760;2023-08-01T02:57:30;25.92;75.86
75705;DHT22;70013;44.726;37.760;2023-08-01T02:58:31;25.96;75.41
75705;DHT22;70013;44.726;37.760;2023-08-01T02:59:33;25.95;75.51
75705;DHT22;70013;44.726;37.760;2023-08-01T03:00:37;25.95;75.57
75705;DHT22;70013;44.726;37.760;2023-08-01T03:01:39;25.98;75.21
75705;DHT22;70013;44.726;37.760;2023-08-01T03:02:40;26.03;74.96
75705;DHT22;70013;44.726;37.760;2023-08-01T03:03:41;25.99;75.22
75705;DHT22;70013;44.726;37.760;2023-08-01T03:04:43;26.10;74.73
75705;DHT22;70013;44.726;37.760;2023-08-01T03:05:44;26.10;74.53
75705;DHT22;70013;44.726;37.760;2023-08-01T03:06:46;26.13;74.29
75705;DHT22;70013;44.726;37.760;2023-08-01T03:07:47;26.08;74.76
75705;DHT22;70013;44.726;37.760;2023-08-01T03:08:48;26.11;74.61
75705;DHT22;70013;44.726;37.760;2023-08-01T03:09:49;26.09;74.55
75705;DHT22;70013;44.726;37.760;2023-08-01T03:10:51;26.11;74.69
75705;DHT22;70013;44.726;37.760;2023-08-01T03:11:52;26.11;74.49
75705;DHT22;70013;44.726;37.760;2023-08-01T03:12:53;26.18;74.10
75705;DHT22;70013;44.726;37.760;2023-08-01T03:13:54;26.21;74.22
75705;DHT22;70013;44.726;37.760;2023-08-01T03:14:56;26.24;73.74
75705;DHT22;70013;44.726;37.760;2023-08-01T03:15:57;26.33;73.35
75705;DHT22;70013;44.726;37.760;2023-08-01T03:16:58;26.33;73.44
75705;DHT22;70013;44.726;37.760;2023-08-01T03:18:00;26.28;73.44
75705;DHT22;70013;44.726;37.760;2023-08-01T03:19:01;26.27;73.46
75705;DHT22;70013;44.726;37.760;2023-08-01T03:20:06;26.33;72.64
75705;DHT22;70013;44.726;37.760;2023-08-01T03:21:11;26.32;73.21
75705;DHT22;70013;44.726;37.760;2023-08-01T03:22:13;26.34;72.87
75705;DHT22;70013;44.726;37.760;2023-08-01T03:23:14;26.36;72.99
75705;DHT22;70013;44.726;37.760;2023-08-01T03:24:15;26.33;73.12
75705;DHT22;70013;44.726;37.760;2023-08-01T03:25:16;26.28;73.10
75705;DHT22;70013;44.726;37.760;2023-08-01T03:26:18;26.40;72.58
75705;DHT22;70013;44.726;37.760;2023-08-01T03:27:19;26.41;72.43
75705;DHT22;70013;44.726;37.760;2023-08-01T03:28:21;26.38;72.41
75705;DHT22;70013;44.726;37.760;2023-08-01T03:29:22;26.45;72.24
75705;DHT22;70013;44.726;37.760;2023-08-01T03:30:24;26.47;71.80
75705;DHT22;70013;44.726;37.760;2023-08-01T03:31:25;26.47;71.94
75705;DHT22;70013;44.726;37.760;2023-08-01T03:32:29;26.43;71.90
75705;DHT22;70013;44.726;37.760;2023-08-01T03:33:32;26.55;71.47
75705;DHT22;70013;44.726;37.760;2023-08-01T03:34:34;26.62;71.13
75705;DHT22;70013;44.726;37.760;2023-08-01T03:35:35;26.57;71.30
75705;DHT22;70013;44.726;37.760;2023-08-01T03:36:37;26.66;70.85
75705;DHT22;70013;44.726;37.760;2023-08-01T03:37:38;26.53;71.77
75705;DHT22;70013;44.726;37.760;2023-08-01T03:38:39;26.58;71.32
75705;DHT22;70013;44.726;37.760;2023-08-01T03:39:41;26.73;70.53
75705;DHT22;70013;44.726;37.760;2023-08-01T03:40:43;26.77;70.39
75705;DHT22;70013;44.726;37.760;2023-08-01T03:41:44;26.79;70.37
75705;DHT22;70013;44.726;37.760;2023-08-01T03:42:46;26.75;70.58
75705;DHT22;70013;44.726;37.760;2023-08-01T03:43:47;26.77;70.56
75705;DHT22;70013;44.726;37.760;2023-08-01T03:44:49;26.70;70.71
75705;DHT22;70013;44.726;37.760;2023-08-01T03:45:51;26.67;70.68
75705;DHT22;70013;44.726;37.760;2023-08-01T03:46:52;26.65;70.82
75705;DHT22;70013;44.726;37.760;2023-08-01T03:47:54;26.63;71.03
75705;DHT22;70013;44.726;37.760;2023-08-01T03:48:56;26.60;71.13
75705;DHT22;70013;44.726;37.760;2023-08-01T03:49:57;26.58;71.51
75705;DHT22;70013;44.726;37.760;2023-08-01T03:50:59;26.84;70.61
75705;DHT22;70013;44.726;37.760;2023-08-01T03:52:01;27.09;69.07
75705;DHT22;70013;44.726;37.760;2023-08-01T03:53:03;27.13;68.76
75705;DHT22;70013;44.726;37.760;2023-08-01T03:54:04;26.99;69.22
75705;DHT22;70013;44.726;37.760;2023-08-01T03:55:06;26.97;69.49
75705;DHT22;70013;44.726;37.760;2023-08-01T03:56:07;27.02;69.46
75705;DHT22;70013;44.726;37.760;2023-08-01T03:57:09;27.02;69.45
75705;DHT22;70013;44.726;37.760;2023-08-01T03:58:11;26.95;69.74
75705;DHT22;70013;44.726;37.760;2023-08-01T03:59:13;27.04;69.25
75705;DHT22;70013;44.726;37.760;2023-08-01T04:00:14;26.87;70.04
75705;DHT22;70013;44.726;37.760;2023-08-01T04:01:19;26.90;69.74
75705;DHT22;70013;44.726;37.760;2023-08-01T04:02:21;26.95;69.50
75705;DHT22;70013;44.726;37.760;2023-08-01T04:03:23;26.87;69.74
75705;DHT22;70013;44.726;37.760;2023-08-01T04:04:24;26.87;69.52
75705;DHT22;70013;44.726;37.760;2023-08-01T04:05:25;26.70;70.34
75705;DHT22;70013;44.726;37.760;2023-08-01T04:06:26;26.69;70.41
75705;DHT22;70013;44.726;37.760;2023-08-01T04:07:28;26.72;70.19
75705;DHT22;70013;44.726;37.760;2023-08-01T04:08:29;26.77;69.99
75705;DHT22;70013;44.726;37.760;2023-08-01T04:09:31;26.85;69.68
75705;DHT22;70013;44.726;37.760;2023-08-01T04:10:32;26.82;70.03
75705;DHT22;70013;44.726;37.760;2023-08-01T04:11:34;26.85;69.79
75705;DHT22;70013;44.726;37.760;2023-08-01T04:12:35;26.89;69.71
75705;DHT22;70013;44.726;37.760;2023-08-01T04:13:37;26.93;69.57
75705;DHT22;70013;44.726;37.760;2023-08-01T04:14:38;27.04;69.04
75705;DHT22;70013;44.726;37.760;2023-08-01T04:15:39;27.13;68.73
75705;DHT22;70013;44.726;37.760;2023-08-01T04:16:41;27.09;68.94
75705;DHT22;70013;44.726;37.760;2023-08-01T04:17:42;27.13;68.75
75705;DHT22;70013;44.726;37.760;2023-08-01T04:18:43;27.24;68.43
75705;DHT22;70013;44.726;37.760;2023-08-01T04:19:45;27.19;68.47
75705;DHT22;70013;44.726;37.760;2023-08-01T04:20:46;27.21;68.55
75705;DHT22;70013;44.726;37.760;2023-08-01T04:21:47;27.10;68.95
75705;DHT22;70013;44.726;37.760;2023-08-01T04:22:48;27.14;68.75
75705;DHT22;70013;44.726;37.760;2023-08-01T04:23:49;27.05;69.23
75705;DHT22;70013;44.726;37.760;2023-08-01T04:24:51;27.11;68.84
75705;DHT22;70013;44.726;37.760;2023-08-01T04:25:52;27.02;69.26
75705;DHT22;70013;44.726;37.760;2023-08-01T04:26:54;27.01;69.36
75705;DHT22;70013;44.726;37.760;2023-08-01T04:27:55;26.92;69.68
75705;DHT22;70013;44.726;37.760;2023-08-01T04:28:57;26.81;70.26
75705;DHT22;70013;44.726;37.760;2023-08-01T04:29:58;26.71;70.83
75705;DHT22;70013;44.726;37.760;2023-08-01T04:31:00;26.78;70.51
75705;DHT22;70013;44.726;37.760;2023-08-01T04:32:01;26.77;70.62
75705;DHT22;70013;44.726;37.760;2023-08-01T04:33:02;26.69;71.19
75705;DHT22;70013;44.726;37.760;2023-08-01T04:34:04;26.71;71.17
75705;DHT22;70013;44.726;37.760;2023-08-01T04:35:05;26.77;70.88
75705;DHT22;70013;44.726;37.760;2023-08-01T04:36:07;26.82;70.82
75705;DHT22;70013;44.726;37.760;2023-08-01T04:37:08;26.89;70.48
75705;DHT22;70013;44.726;37.760;2023-08-01T04:38:11;26.90;70.30
75705;DHT22;70013;44.726;37.760;2023-08-01T04:39:12;26.97;69.96
75705;DHT22;70013;44.726;37.760;2023-08-01T04:40:14;27.00;69.71
75705;DHT22;70013;44.726;37.760;2023-08-01T04:41:15;27.04;69.49
75705;DHT22;70013;44.726;37.760;2023-08-01T04:42:16;27.08;69.39
75705;DHT22;70013;44.726;37.760;2023-08-01T04:43:18;27.17;68.90
75705;DHT22;70013;44.726;37.760;2023-08-01T04:44:19;27.16;69.00
75705;DHT22;70013;44.726;37.760;2023-08-01T04:45:20;27.29;68.66
75705;DHT22;70013;44.726;37.760;2023-08-01T04:46:21;27.38;68.01
75705;DHT22;70013;44.726;37.760;2023-08-01T04:47:23;27.56;67.33
75705;DHT22;70013;44.726;37.760;2023-08-01T04:48:24;27.71;66.76
75705;DHT22;70013;44.726;37.760;2023-08-01T04:49:26;27.79;66.56
75705;DHT22;70013;44.726;37.760;2023-08-01T04:50:27;28.35;64.80
75705;DHT22;70013;44.726;37.760;2023-08-01T04:51:28;28.60;63.29
75705;DHT22;70013;44.726;37.760;2023-08-01T04:52:30;28.92;62.36
75705;DHT22;70013;44.726;37.760;2023-08-01T04:53:31;29.42;60.55
75705;DHT22;70013;44.726;37.760;2023-08-01T04:54:32;29.44;60.51
75705;DHT22;70013;44.726;37.760;2023-08-01T04:55:33;29.20;61.18
75705;DHT22;70013;44.726;37.760;2023-08-01T04:56:35;29.24;60.64
75705;DHT22;70013;44.726;37.760;2023-08-01T04:57:36;29.27;60.70
75705;DHT22;70013;44.726;37.760;2023-08-01T04:58:38;29.08;61.57
75705;DHT22;70013;44.726;37.760;2023-08-01T04:59:40;29.20;61.45
75705;DHT22;70013;44.726;37.760;2023-08-01T05:00:42;29.31;61.19
75705;DHT22;70013;44.726;37.760;2023-08-01T05:01:43;30.26;58.15
75705;DHT22;70013;44.726;37.760;2023-08-01T05:02:45;30.47;57.34
75705;DHT22;70013;44.726;37.760;2023-08-01T05:03:46;31.01;55.12
75705;DHT22;70013;44.726;37.760;2023-08-01T05:04:48;30.85;56.01
75705;DHT22;70013;44.726;37.760;2023-08-01T05:05:49;30.79;55.94
75705;DHT22;70013;44.726;37.760;2023-08-01T05:06:50;30.85;56.08
75705;DHT22;70013;44.726;37.760;2023-08-01T05:07:52;30.02;58.64
75705;DHT22;70013;44.726;37.760;2023-08-01T05:08:54;29.72;59.71
75705;DHT22;70013;44.726;37.760;2023-08-01T05:09:55;29.60;60.08
75705;DHT22;70013;44.726;37.760;2023-08-01T05:10:56;29.50;60.53
75705;DHT22;70013;44.726;37.760;2023-08-01T05:11:58;29.65;60.22
75705;DHT22;70013;44.726;37.760;2023-08-01T05:12:59;29.74;60.06
75705;DHT22;70013;44.726;37.760;2023-08-01T05:14:00;29.46;60.72
75705;DHT22;70013;44.726;37.760;2023-08-01T05:15:01;29.95;59.31
75705;DHT22;70013;44.726;37.760;2023-08-01T05:16:03;30.66;56.93
75705;DHT22;70013;44.726;37.760;2023-08-01T05:17:05;32.25;52.40
75705;DHT22;70013;44.726;37.760;2023-08-01T05:18:07;32.88;49.88
75705;DHT22;70013;44.726;37.760;2023-08-01T05:19:08;32.74;49.65
75705;DHT22;70013;44.726;37.760;2023-08-01T05:20:09;33.14;48.76
75705;DHT22;70013;44.726;37.760;2023-08-01T05:21:11;34.17;46.70
75705;DHT22;70013;44.726;37.760;2023-08-01T05:22:12;35.66;41.59
75705;DHT22;70013;44.726;37.760;2023-08-01T05:23:14;37.06;38.41
75705;DHT22;70013;44.726;37.760;2023-08-01T05:24:16;38.20;36.58
75705;DHT22;70013;44.726;37.760;2023-08-01T05:25:17;37.38;37.23
75705;DHT22;70013;44.726;37.760;2023-08-01T05:26:18;36.73;38.27
75705;DHT22;70013;44.726;37.760;2023-08-01T05:27:19;35.51;41.80
75705;DHT22;70013;44.726;37.760;2023-08-01T05:28:21;35.99;40.46
75705;DHT22;70013;44.726;37.760;2023-08-01T05:29:22;35.16;42.14
75705;DHT22;70013;44.726;37.760;2023-08-01T05:30:24;34.09;42.29
75705;DHT22;70013;44.726;37.760;2023-08-01T05:31:26;35.04;41.62
75705;DHT22;70013;44.726;37.760;2023-08-01T05:32:27;35.74;40.20
75705;DHT22;70013;44.726;37.760;2023-08-01T05:33:29;36.81;38.08
75705;DHT22;70013;44.726;37.760;2023-08-01T05:34:30;37.78;36.16
75705;DHT22;70013;44.726;37.760;2023-08-01T05:35:31;38.14;35.87
75705;DHT22;70013;44.726;37.760;2023-08-01T05:36:33;37.92;35.33
75705;DHT22;70013;44.726;37.760;2023-08-01T05:37:34;37.80;35.34
75705;DHT22;70013;44.726;37.760;2023-08-01T05:38:36;38.30;34.12
75705;DHT22;70013;44.726;37.760;2023-08-01T05:39:37;38.45;33.86
75705;DHT22;70013;44.726;37.760;2023-08-01T05:40:39;38.93;32.57
75705;DHT22;70013;44.726;37.760;2023-08-01T05:41:40;38.69;32.47
75705;DHT22;70013;44.726;37.760;2023-08-01T05:42:42;39.84;30.77
75705;DHT22;70013;44.726;37.760;2023-08-01T05:43:43;40.55;29.25
75705;DHT22;70013;44.726;37.760;2023-08-01T05:44:45;40.66;28.45
75705;DHT22;70013;44.726;37.760;2023-08-01T05:45:46;40.99;28.02
75705;DHT22;70013;44.726;37.760;2023-08-01T05:46:47;40.66;28.70
75705;DHT22;70013;44.726;37.760;2023-08-01T05:47:49;40.82;28.23
75705;DHT22;70013;44.726;37.760;2023-08-01T05:48:50;40.99;27.74
75705;DHT22;70013;44.726;37.760;2023-08-01T05:49:52;42.01;26.52
75705;DHT22;70013;44.726;37.760;2023-08-01T05:50:53;42.94;25.30
75705;DHT22;70013;44.726;37.760;2023-08-01T05:51:56;43.35;24.24
75705;DHT22;70013;44.726;37.760;2023-08-01T05:52:58;43.29;23.93
75705;DHT22;70013;44.726;37.760;2023-08-01T05:53:59;42.57;24.36
75705;DHT22;70013;44.726;37.760;2023-08-01T05:55:01;40.98;27.81
75705;DHT22;70013;44.726;37.760;2023-08-01T05:56:02;40.62;26.75
75705;DHT22;70013;44.726;37.760;2023-08-01T05:57:07;40.74;26.44
75705;DHT22;70013;44.726;37.760;2023-08-01T05:58:09;42.04;24.70
75705;DHT22;70013;44.726;37.760;2023-08-01T05:59:10;42.57;23.64
75705;DHT22;70013;44.726;37.760;2023-08-01T06:00:13;43.59;22.28
75705;DHT22;70013;44.726;37.760;2023-08-01T06:01:14;44.09;20.70
75705;DHT22;70013;44.726;37.760;2023-08-01T06:02:16;44.59;19.45
75705;DHT22;70013;44.726;37.760;2023-08-01T06:03:17;43.99;19.67
75705;DHT22;70013;44.726;37.760;2023-08-01T06:04:19;44.22;19.82
75705;DHT22;70013;44.726;37.760;2023-08-01T06:05:21;43.67;20.60
75705;DHT22;70013;44.726;37.760;2023-08-01T06:06:22;43.55;21.12
75705;DHT22;70013;44.726;37.760;2023-08-01T06:07:24;43.94;20.55
75705;DHT22;70013;44.726;37.760;2023-08-01T06:08:25;44.28;19.40
75705;DHT22;70013;44.726;37.760;2023-08-01T06:09:27;44.86;18.24
75705;DHT22;70013;44.726;37.760;2023-08-01T06:10:28;45.75;17.53
75705;DHT22;70013;44.726;37.760;2023-08-01T06:11:30;45.48;17.77
75705;DHT22;70013;44.726;37.760;2023-08-01T06:12:31;45.65;18.26
75705;DHT22;70013;44.726;37.760;2023-08-01T06:13:33;46.04;17.44
75705;DHT22;70013;44.726;37.760;2023-08-01T06:14:34;46.59;16.54
75705;DHT22;70013;44.726;37.760;2023-08-01T06:15:36;46.58;16.16
75705;DHT22;70013;44.726;37.760;2023-08-01T06:16:37;46.98;16.00
75705;DHT22;70013;44.726;37.760;2023-08-01T06:17:39;47.11;16.03
75705;DHT22;70013;44.726;37.760;2023-08-01T06:18:40;47.82;15.21
75705;DHT22;70013;44.726;37.760;2023-08-01T06:19:42;48.28;14.89
75705;DHT22;70013;44.726;37.760;2023-08-01T06:20:43;48.23;14.07
75705;DHT22;70013;44.726;37.760;2023-08-01T06:21:45;47.27;15.25
75705;DHT22;70013;44.726;37.760;2023-08-01T06:22:46;46.50;15.68
75705;DHT22;70013;44.726;37.760;2023-08-01T06:23:48;45.11;17.52